Time;durP1;ratioP1;P1;durP2;ratioP2;P2;SDS_P1;SDS_P2;PMS_P1;PMS_P2;Temp;Humidity;BMP_temperature;BMP_pressure;BME280_temperature;BME280_humidity;BME280_pressure;Samples;Min_cycle;Max_cycle;Signal;HPM_P1;HPM_P2
2021/07/21 00:00:53;;;;;;;23.10;8.03;;;;;;;24.44;74.82;100478.36;1748880;82;21334;-71
2021/07/21 00:03:26;;;;;;;17.10;7.85;;;;;;;24.39;74.87;100485.09;1749322;80;21314;-78
2021/07/21 00:06:00;;;;;;;16.42;8.53;;;;;;;24.36;75.05;100500.59;1749052;82;21729;-73
2021/07/21 00:08:33;;;;;;;12.47;8.53;;;;;;;24.33;75.21;100496.45;1731990;82;21359;-71
2021/07/21 00:14:00;;;;;;;13.08;9.35;;;;;;;24.41;75.17;100491.27;1749170;82;21980;-80
2021/07/21 00:16:37;;;;;;;16.25;7.92;;;;;;;24.41;75.19;100494.68;1748981;80;21204;-84
2021/07/21 00:21:59;;;;;;;16.40;7.67;;;;;;;24.43;75.18;100491.72;1748799;82;21320;-71
2021/07/21 00:24:31;;;;;;;;;;;;;;;24.47;75.26;100484.73;1751596;81;21355;-73
2021/07/21 00:27:04;;;;;;;24.65;9.15;;;;;;;24.53;75.16;100490.40;1751634;79;20211;-77
2021/07/21 00:29:36;;;;;;;15.88;7.62;;;;;;;24.57;75.09;100489.34;1749266;82;21322;-71
2021/07/21 00:32:09;;;;;;;25.90;8.08;;;;;;;24.60;74.81;100487.80;1751371;81;21292;-71
2021/07/21 00:34:43;;;;;;;16.67;7.72;;;;;;;24.59;74.74;100484.16;1753808;82;21196;-75
2021/07/21 00:37:16;;;;;;;19.60;8.63;;;;;;;24.59;74.64;100487.00;1754199;81;21402;-71
2021/07/21 00:39:51;;;;;;;24.92;8.90;;;;;;;24.57;74.76;100483.66;1752229;82;21766;-71
2021/07/21 00:42:25;;;;;;;16.73;8.53;;;;;;;24.54;74.97;100484.37;1751001;82;21330;-73
2021/07/21 00:44:58;;;;;;;19.27;8.60;;;;;;;24.49;75.22;100479.51;1753345;82;21304;-75
2021/07/21 00:47:31;;;;;;;17.90;8.88;;;;;;;24.44;75.52;100482.02;1749893;82;21319;-73
2021/07/21 00:50:06;;;;;;;19.55;9.40;;;;;;;24.40;75.76;100481.09;1750105;82;21743;-79
2021/07/21 00:52:40;;;;;;;20.88;9.80;;;;;;;24.38;75.97;100485.48;1752456;82;21308;-79
2021/07/21 00:55:15;;;;;;;25.20;9.78;;;;;;;24.40;76.06;100486.77;1749269;82;21335;-82
2021/07/21 00:57:50;;;;;;;23.60;9.73;;;;;;;24.44;76.03;100486.88;1774499;79;21153;-81
2021/07/21 01:00:23;;;;;;;22.58;8.95;;;;;;;24.44;76.01;100478.36;1780298;80;21220;-82
2021/07/21 01:02:56;;;;;;;25.32;10.40;;;;;;;24.43;75.92;100476.10;1780281;80;21832;-76
2021/07/21 01:05:33;;;;;;;21.25;9.90;;;;;;;24.46;75.90;100482.50;1780414;80;21201;-81
2021/07/21 01:08:08;;;;;;;26.05;11.50;;;;;;;24.49;75.81;100479.51;1763147;80;21174;-69
2021/07/21 01:11:09;;;;;;;18.87;10.32;;;;;;;24.48;75.62;100471.61;1772460;80;21299;-68
2021/07/21 01:14:14;;;;;;;24.90;11.33;;;;;;;24.47;75.48;100464.86;1779501;79;21308;-66
2021/07/21 01:16:53;;;;;;;24.82;10.60;;;;;;;24.45;75.47;100463.78;1780052;80;21242;-72
2021/07/21 01:20:07;;;;;;;17.15;10.32;;;;;;;24.46;75.43;100458.36;1781435;80;21307;-70
2021/07/21 01:22:41;;;;;;;20.48;10.90;;;;;;;24.45;75.31;100450.20;1782150;80;21300;-69
2021/07/21 01:25:27;;;;;;;25.97;10.32;;;;;;;24.40;75.11;100455.54;1781650;79;21316;-68
2021/07/21 01:28:16;;;;;;;24.70;10.23;;;;;;;24.37;75.09;100455.41;1780175;80;21315;-67
2021/07/21 01:30:54;;;;;;;15.90;10.20;;;;;;;24.30;75.23;100454.60;1780143;80;21687;-69
2021/07/21 01:33:30;;;;;;;21.57;10.88;;;;;;;24.29;75.34;100454.95;1780316;80;21308;-70
2021/07/21 01:36:17;;;;;;;22.45;10.90;;;;;;;24.27;75.37;100452.46;1780410;80;21213;-78
2021/07/21 01:39:02;;;;;;;19.92;9.98;;;;;;;24.28;75.19;100451.30;1762257;80;21299;-69
2021/07/21 01:41:39;;;;;;;25.27;10.35;;;;;;;24.27;75.06;100449.63;1749261;80;21818;-70
2021/07/21 01:44:18;;;;;;;20.97;9.68;;;;;;;24.24;75.11;100448.09;1780283;80;21308;-77
2021/07/21 01:46:58;;;;;;;24.25;11.20;;;;;;;24.25;75.12;100456.88;1780394;80;21162;-69
2021/07/21 01:49:40;;;;;;;26.97;11.38;;;;;;;24.29;75.10;100456.38;1780410;80;21165;-70
2021/07/21 01:52:15;;;;;;;20.77;10.90;;;;;;;24.25;75.01;100453.42;1780249;80;21169;-69
2021/07/21 01:54:49;;;;;;;26.30;10.70;;;;;;;24.24;75.14;100456.61;1780272;80;21296;-68
2021/07/21 01:57:31;;;;;;;19.40;10.75;;;;;;;24.24;75.20;100450.94;1780307;80;21317;-70
2021/07/21 02:00:10;;;;;;;28.38;11.57;;;;;;;24.28;75.13;100449.89;1760101;79;21259;-68
2021/07/21 02:02:54;;;;;;;26.33;11.18;;;;;;;24.32;74.84;100448.58;1751085;82;21725;-70
2021/07/21 02:05:29;;;;;;;22.82;11.28;;;;;;;24.30;74.64;100450.34;1747387;82;21184;-68
2021/07/21 02:08:03;;;;;;;22.02;10.63;;;;;;;24.25;74.42;100456.88;1751350;82;21797;-72
2021/07/21 02:10:39;;;;;;;28.27;10.72;;;;;;;24.18;74.47;100449.52;1751307;82;21741;-75
2021/07/21 02:13:15;;;;;;;20.45;11.45;;;;;;;24.15;74.70;100462.41;1706649;82;21187;-71
2021/07/21 02:15:52;;;;;;;25.90;12.45;;;;;;;24.17;74.48;100450.71;1750995;82;21761;-71
2021/07/21 02:18:26;;;;;;;25.05;11.33;;;;;;;24.13;74.33;100448.38;1750972;80;21220;-68
2021/07/21 02:21:04;;;;;;;19.77;10.13;;;;;;;24.10;74.32;100460.42;1749170;81;21181;-73
2021/07/21 02:23:38;;;;;;;16.57;10.25;;;;;;;24.08;74.34;100456.52;1749011;82;21885;-70
2021/07/21 02:26:16;;;;;;;21.00;11.57;;;;;;;24.02;74.48;100458.55;1748950;82;21256;-70
2021/07/21 02:28:50;;;;;;;19.67;11.25;;;;;;;24.00;74.50;100459.47;1749122;80;21335;-70
2021/07/21 02:31:31;;;;;;;23.57;10.60;;;;;;;23.97;74.53;100458.78;1763717;80;21331;-71
2021/07/21 02:34:07;;;;;;;22.10;12.33;;;;;;;23.95;74.60;100461.16;1778997;80;21225;-69
2021/07/21 02:36:41;;;;;;;22.73;10.23;;;;;;;23.94;74.58;100456.64;1779232;79;21299;-69
2021/07/21 02:39:15;;;;;;;23.32;11.00;;;;;;;23.96;74.66;100460.78;1756832;80;21319;-69
2021/07/21 02:41:48;;;;;;;18.75;11.63;;;;;;;24.06;74.50;100458.05;1779682;80;21295;-69
2021/07/21 02:44:22;;;;;;;20.68;11.90;;;;;;;24.12;74.34;100456.63;1779771;80;21351;-72
2021/07/21 02:46:55;;;;;;;;;;;;;;;24.15;74.17;100449.64;1782337;80;21833;-73
2021/07/21 02:49:28;;;;;;;29.90;12.73;;;;;;;24.17;74.12;100452.97;1779774;80;20254;-70
2021/07/21 02:52:24;;;;;;;49.23;14.53;;;;;;;24.15;74.16;100457.34;1736485;81;21747;-69
2021/07/21 02:55:05;;;;;;;25.10;12.65;;;;;;;24.14;74.23;100451.44;1753619;81;21229;-73
2021/07/21 02:57:56;;;;;;;32.70;12.65;;;;;;;24.14;74.22;100458.54;1779049;80;21185;-74
2021/07/21 03:00:31;;;;;;;24.27;11.90;;;;;;;24.16;74.21;100459.00;1764689;80;21394;-79
2021/07/21 03:03:13;;;;;;;22.37;12.37;;;;;;;24.16;74.23;100460.42;1766675;80;21166;-72
2021/07/21 03:05:46;;;;;;;31.90;12.00;;;;;;;24.18;74.12;100473.07;1762487;80;21319;-73
2021/07/21 03:08:27;;;;;;;32.48;13.48;;;;;;;24.17;73.88;100465.75;1780967;79;21307;-83
2021/07/21 03:11:03;;;;;;;125.58;17.98;;;;;;;24.12;73.78;100470.81;1779739;80;21395;-78
2021/07/21 03:13:52;;;;;;;121.90;20.08;;;;;;;24.03;73.83;100475.20;1779640;80;21371;-73
2021/07/21 03:16:34;;;;;;;145.75;20.65;;;;;;;24.01;74.01;100469.05;1779584;80;21236;-76
2021/07/21 03:19:07;;;;;;;58.30;15.38;;;;;;;24.01;74.06;100469.67;1737054;80;21367;-64
2021/07/21 03:21:41;;;;;;;32.80;14.55;;;;;;;24.04;73.96;100488.23;1757132;80;21178;-83
2021/07/21 03:24:16;;;;;;;24.80;13.08;;;;;;;24.06;73.87;100482.17;1772292;78;21312;-85
2021/07/21 03:26:59;;;;;;;;;;;;;;;24.10;73.79;100495.90;1766347;80;21300;-85
2021/07/21 03:29:34;;;;;;;36.75;12.07;;;;;;;24.15;73.48;100503.57;1766054;77;20187;-72
2021/07/21 03:32:07;;;;;;;50.12;12.88;;;;;;;24.11;73.54;100506.06;1755005;81;21173;-73
2021/07/21 03:34:42;;;;;;;19.77;10.68;;;;;;;24.15;73.51;100508.44;1757132;81;21370;-72
2021/07/21 03:37:16;;;;;;;17.17;10.85;;;;;;;24.17;73.32;100514.00;1757241;81;21276;-72
2021/07/21 03:39:59;;;;;;;16.75;10.35;;;;;;;24.18;73.18;100514.23;1696561;83;21333;-73
2021/07/21 03:42:37;;;;;;;21.07;9.78;;;;;;;24.26;73.01;100525.23;1687227;81;21320;-72
2021/07/21 03:45:11;;;;;;;;;;;;;;;24.26;72.81;100522.39;1739868;81;21904;-72
2021/07/21 03:47:44;;;;;;;15.35;10.23;;;;;;;24.34;72.64;100529.95;1727317;83;20546;-73
2021/07/21 03:50:23;;;;;;;;;;;;;;;24.37;72.46;100526.38;1726164;81;21393;-72
2021/07/21 03:52:56;;;;;;;20.70;11.63;;;;;;;24.41;72.27;100535.28;1727303;83;20245;-73
2021/07/21 03:55:30;;;;;;;28.32;11.05;;;;;;;24.42;72.19;100538.92;1737135;81;21722;-73
2021/07/21 03:58:06;;;;;;;43.92;13.90;;;;;;;24.46;72.23;100539.88;1757759;80;21418;-72
2021/07/21 04:00:56;;;;;;;24.12;11.85;;;;;;;24.49;71.97;100534.89;1731505;81;21205;-72
2021/07/21 04:03:31;;;;;;;123.07;17.87;;;;;;;24.41;72.18;100536.70;1723901;83;21419;-72
2021/07/21 04:06:05;;;;;;;50.95;14.20;;;;;;;24.37;72.27;100539.16;1756989;80;21362;-73
2021/07/21 04:08:43;;;;;;;32.60;12.07;;;;;;;24.33;72.42;100535.40;1758295;80;21290;-72
2021/07/21 04:11:16;;;;;;;34.70;12.75;;;;;;;24.34;72.56;100536.47;1757452;80;21327;-65
2021/07/21 04:13:52;;;;;;;21.85;11.50;;;;;;;24.37;72.54;100538.58;1740018;80;21244;-75
2021/07/21 04:16:26;;;;;;;26.20;13.55;;;;;;;24.44;72.61;100533.73;1726281;81;21196;-72
2021/07/21 04:19:01;;;;;;;20.48;12.70;;;;;;;24.47;72.47;100533.01;1765216;80;21331;-75
2021/07/21 04:21:40;;;;;;;18.52;12.90;;;;;;;24.51;72.17;100532.54;1752369;81;21322;-76
2021/07/21 04:24:14;;;;;;;19.92;12.58;;;;;;;24.54;72.16;100536.07;1756593;81;21343;-78
2021/07/21 04:26:49;;;;;;;18.60;12.58;;;;;;;24.56;71.75;100536.56;1756340;80;21686;-74
2021/07/21 04:29:27;;;;;;;16.82;12.50;;;;;;;24.56;71.94;100541.63;1776345;79;21224;-74
2021/07/21 04:32:14;;;;;;;25.20;13.38;;;;;;;24.72;71.96;100534.07;1725074;80;21352;-73
2021/07/21 04:34:51;;;;;;;25.40;13.08;;;;;;;25.06;71.23;100535.51;1764218;80;21327;-74
2021/07/21 04:37:25;;;;;;;22.75;12.55;;;;;;;25.48;70.60;100531.89;1759142;80;21166;-71
2021/07/21 04:40:03;;;;;;;24.67;12.58;;;;;;;25.98;69.51;100530.64;1725517;82;21431;-75
2021/07/21 04:42:40;;;;;;;32.55;13.00;;;;;;;26.44;67.45;100529.78;1777016;80;21359;-72
2021/07/21 04:45:22;;;;;;;16.52;12.40;;;;;;;26.91;65.50;100526.83;1779125;80;21867;-74
2021/07/21 04:47:58;;;;;;;24.02;12.70;;;;;;;27.34;63.62;100529.63;1747262;82;21358;-74
2021/07/21 04:50:33;;;;;;;25.55;12.33;;;;;;;27.67;62.99;100528.47;1734092;81;21215;-74
2021/07/21 04:53:11;;;;;;;20.80;12.25;;;;;;;28.05;61.26;100526.95;1750353;80;21225;-77
2021/07/21 04:55:49;;;;;;;22.55;12.10;;;;;;;28.36;60.61;100528.13;1726468;81;21335;-75
2021/07/21 04:58:23;;;;;;;19.45;10.98;;;;;;;28.72;59.48;100527.46;1780155;79;21325;-73
2021/07/21 05:01:01;;;;;;;16.75;10.68;;;;;;;29.04;59.35;100522.23;1749263;82;21407;-81
2021/07/21 05:03:34;;;;;;;17.82;11.35;;;;;;;29.42;58.27;100521.89;1760172;77;21759;-82
2021/07/21 05:06:08;;;;;;;28.70;14.07;;;;;;;29.73;56.32;100517.16;1813641;79;21867;-76
2021/07/21 05:08:44;;;;;;;17.25;10.70;;;;;;;29.95;55.74;100519.83;1813322;78;21256;-76
2021/07/21 05:11:25;;;;;;;14.95;10.45;;;;;;;30.10;54.89;100523.09;1813112;79;21212;-76
2021/07/21 05:14:01;;;;;;;16.12;9.48;;;;;;;30.26;54.52;100520.75;1813430;79;21367;-79
2021/07/21 05:16:36;;;;;;;14.53;10.13;;;;;;;30.49;54.14;100517.64;1767301;81;21229;-78
2021/07/21 05:19:11;;;;;;;15.90;10.65;;;;;;;30.67;53.40;100515.75;1773865;81;21836;-79
2021/07/21 05:21:45;;;;;;;22.32;10.23;;;;;;;30.79;53.04;100519.72;1773553;79;21854;-74
2021/07/21 05:24:18;;;;;;;12.82;11.20;;;;;;;30.81;52.99;100525.27;1773989;80;21423;-76
2021/07/21 05:26:50;;;;;;;15.20;10.45;;;;;;;30.67;52.80;100523.76;1773943;79;21829;-75
2021/07/21 05:29:25;;;;;;;17.75;12.05;;;;;;;30.58;53.58;100520.41;1774441;79;21372;-80
2021/07/21 05:32:06;;;;;;;23.12;11.95;;;;;;;30.51;53.96;100522.39;1773915;81;21190;-77
2021/07/21 05:34:40;;;;;;;17.70;13.28;;;;;;;30.27;54.18;100525.25;1773895;79;22488;-76
2021/07/21 05:37:32;;;;;;;20.77;13.40;;;;;;;30.04;54.39;100520.94;1773997;79;21177;-79
2021/07/21 05:40:08;;;;;;;26.73;15.45;;;;;;;29.79;55.72;100531.33;1773766;79;21300;-73
2021/07/21 05:42:58;;;;;;;19.52;15.53;;;;;;;29.64;56.21;100532.41;1773627;79;21222;-74
2021/07/21 05:45:32;;;;;;;22.37;15.95;;;;;;;29.44;57.08;100533.16;1773972;79;21174;-73
2021/07/21 05:48:06;;;;;;;22.07;16.32;;;;;;;29.24;57.76;100538.86;1773904;81;21355;-73
2021/07/21 05:50:41;;;;;;;29.65;17.62;;;;;;;29.02;58.10;100538.34;1772862;79;21316;-75
2021/07/21 05:53:14;;;;;;;33.35;19.90;;;;;;;28.72;58.51;100538.90;1773942;81;21182;-73
2021/07/21 05:55:48;;;;;;;29.20;17.60;;;;;;;28.41;59.39;100538.39;1774037;79;21811;-73
2021/07/21 05:58:23;;;;;;;26.93;19.23;;;;;;;28.16;60.19;100537.97;1774009;81;21379;-74
2021/07/21 06:00:56;;;;;;;26.93;19.67;;;;;;;27.91;61.05;100538.13;1774547;81;21308;-77
2021/07/21 06:03:29;;;;;;;28.15;20.27;;;;;;;27.83;61.84;100542.66;1774408;79;21350;-82
2021/07/21 06:06:12;;;;;;;27.30;18.85;;;;;;;27.70;62.37;100541.97;1771487;79;21738;-72
2021/07/21 06:09:04;;;;;;;34.27;22.15;;;;;;;27.60;63.07;100545.47;1776211;80;21174;-73
2021/07/21 06:11:40;;;;;;;34.90;23.25;;;;;;;27.52;63.56;100543.66;1771490;79;21387;-80
2021/07/21 06:14:15;;;;;;;35.52;22.60;;;;;;;27.39;63.79;100545.02;1772008;80;22286;-85
2021/07/21 06:16:52;;;;;;;32.83;24.30;;;;;;;27.31;64.13;100544.45;1772704;79;21407;-78
2021/07/21 06:19:34;;;;;;;36.50;25.17;;;;;;;27.16;64.75;100546.17;1772209;79;21905;-82
2021/07/21 06:22:12;;;;;;;38.25;23.87;;;;;;;27.00;65.08;100548.22;1776386;79;21308;-72
2021/07/21 06:24:54;;;;;;;46.92;25.65;;;;;;;26.84;65.71;100549.48;1772633;79;21319;-81
2021/07/21 06:27:30;;;;;;;34.25;23.80;;;;;;;26.68;66.26;100550.11;1769166;79;21739;-81
2021/07/21 06:30:12;;;;;;;43.55;25.68;;;;;;;26.60;66.90;100544.87;1772631;79;21327;-81
2021/07/21 06:32:48;;;;;;;38.98;24.00;;;;;;;26.53;67.30;100550.95;1772294;79;21174;-82
2021/07/21 06:35:25;;;;;;;47.33;26.23;;;;;;;26.47;67.58;100543.89;1773982;79;21308;-79
2021/07/21 06:38:09;;;;;;;41.25;26.60;;;;;;;26.43;67.80;100547.23;1775052;79;21185;-73
2021/07/21 06:40:51;;;;;;;44.48;26.35;;;;;;;26.42;68.02;100548.44;1771489;81;21178;-77
2021/07/21 06:43:29;;;;;;;44.13;25.95;;;;;;;26.38;68.20;100547.52;1771909;79;21221;-80
2021/07/21 06:46:06;;;;;;;43.02;25.43;;;;;;;26.32;68.38;100553.27;1771730;79;21312;-73
2021/07/21 06:48:41;;;;;;;34.73;23.87;;;;;;;26.22;68.79;100550.38;1771649;81;21363;-85
2021/07/21 06:51:15;;;;;;;47.23;25.17;;;;;;;26.15;69.07;100550.20;1771864;81;21336;-85
2021/07/21 06:53:52;;;;;;;36.40;26.45;;;;;;;26.15;69.15;100549.40;1771718;79;21747;-71
2021/07/21 06:56:28;;;;;;;43.10;25.27;;;;;;;26.13;69.04;100549.76;1776164;81;21320;-84
2021/07/21 06:59:09;;;;;;;32.78;22.17;;;;;;;26.10;69.22;100551.91;1768599;79;21209;-74
2021/07/21 07:01:45;;;;;;;31.60;20.48;;;;;;;26.02;69.53;100560.66;1772158;81;21367;-73
2021/07/21 07:04:30;;;;;;;38.88;21.55;;;;;;;25.98;69.70;100567.65;1746070;79;21178;-75
2021/07/21 07:07:18;;;;;;;35.23;20.55;;;;;;;25.86;70.08;100570.58;1790474;78;21666;-74
2021/07/21 07:09:54;;;;;;;33.18;19.32;;;;;;;25.77;70.39;100569.06;1796644;78;21300;-73
2021/07/21 07:12:32;;;;;;;30.72;19.70;;;;;;;25.67;70.51;100574.69;1796461;80;21359;-75
2021/07/21 07:15:07;;;;;;;25.62;18.48;;;;;;;25.61;70.73;100577.57;1796745;80;21633;-84
2021/07/21 07:17:46;;;;;;;23.62;16.35;;;;;;;25.56;70.58;100579.86;1796759;78;21829;-81
2021/07/21 07:20:19;;;;;;;28.12;17.30;;;;;;;25.51;70.63;100577.28;1766267;80;21172;-78
2021/07/21 07:22:53;;;;;;;38.83;20.45;;;;;;;25.49;70.78;100573.98;1796296;78;21209;-74
2021/07/21 07:25:26;;;;;;;40.33;19.82;;;;;;;25.48;70.84;100573.14;1796188;80;21228;-75
2021/07/21 07:27:58;;;;;;;33.18;19.65;;;;;;;25.43;70.50;100567.70;1796499;80;21320;-73
2021/07/21 07:30:31;;;;;;;34.80;20.25;;;;;;;25.44;70.75;100567.97;1796711;78;21347;-74
2021/07/21 07:33:04;;;;;;;35.63;20.15;;;;;;;25.50;70.59;100571.36;1797874;80;21450;-84
2021/07/21 07:35:39;;;;;;;34.15;19.52;;;;;;;25.54;70.28;100573.72;1797842;78;21312;-76
2021/07/21 07:38:11;;;;;;;31.40;20.32;;;;;;;25.60;70.41;100580.80;1768704;76;21189;-76
2021/07/21 07:40:47;;;;;;;33.70;20.40;;;;;;;25.66;70.24;100575.08;1764131;81;21149;-72
2021/07/21 07:43:20;;;;;;;53.90;21.75;;;;;;;25.69;70.24;100578.61;1764057;80;21187;-73
2021/07/21 07:46:00;;;;;;;42.27;17.10;;;;;;;25.68;70.06;100587.75;1761526;81;21252;-73
2021/07/21 07:48:34;;;;;;;26.77;16.73;;;;;;;25.64;69.70;100595.94;1763317;81;21826;-73
2021/07/21 07:51:07;;;;;;;22.25;15.20;;;;;;;25.62;69.88;100596.91;1763478;81;21259;-73
2021/07/21 07:53:40;;;;;;;25.32;15.08;;;;;;;25.65;69.79;100596.16;1762930;81;21303;-84
2021/07/21 07:56:13;;;;;;;23.65;14.20;;;;;;;25.70;69.45;100601.59;1762147;81;21805;-73
2021/07/21 07:58:45;;;;;;;34.98;15.03;;;;;;;25.75;69.14;100602.76;1762233;81;21291;-74
2021/07/21 08:01:18;;;;;;;30.60;13.93;;;;;;;25.73;69.08;100600.88;1759063;81;21378;-81
2021/07/21 08:03:51;;;;;;;;;;;;;;;25.74;68.83;100602.53;1764566;81;21326;-73
2021/07/21 08:06:26;;;;;;;23.32;13.03;;;;;;;25.74;68.28;100609.06;1761898;81;20249;-77
2021/07/21 08:08:59;;;;;;;31.48;11.88;;;;;;;25.71;68.05;100611.20;1762208;81;21821;-80
2021/07/21 08:11:32;;;;;;;19.67;10.93;;;;;;;25.71;67.99;100616.89;1762422;81;21828;-72
2021/07/21 08:14:05;;;;;;;19.65;11.03;;;;;;;25.75;67.51;100617.83;1762022;81;21326;-72
2021/07/21 08:16:38;;;;;;;41.37;11.45;;;;;;;25.78;67.25;100613.43;1762146;81;21314;-75
2021/07/21 08:19:11;;;;;;;19.52;10.55;;;;;;;25.81;67.03;100612.10;1762286;81;21390;-73
2021/07/21 08:21:44;;;;;;;34.50;13.35;;;;;;;25.80;66.69;100606.77;1762730;81;21310;-89
2021/07/21 08:24:17;;;;;;;17.87;9.88;;;;;;;25.75;66.83;100612.14;1762447;81;21307;-73
2021/07/21 08:26:51;;;;;;;17.87;9.20;;;;;;;25.73;66.54;100615.92;1763047;81;21342;-73
2021/07/21 08:29:26;;;;;;;16.70;10.95;;;;;;;25.73;66.46;100614.50;1759018;81;21805;-72
2021/07/21 08:32:00;;;;;;;19.77;9.93;;;;;;;25.71;66.36;100620.32;1763253;81;21291;-83
2021/07/21 08:34:34;;;;;;;16.27;10.30;;;;;;;25.66;65.92;100618.57;1762743;81;21382;-74
2021/07/21 08:37:09;;;;;;;21.05;10.93;;;;;;;25.60;65.90;100620.02;1760752;81;21228;-73
2021/07/21 08:39:44;;;;;;;17.27;8.98;;;;;;;25.54;65.94;100621.47;1671380;84;21229;-72
2021/07/21 08:42:41;;;;;;;14.53;9.50;;;;;;;25.53;66.55;100620.44;1734422;82;21213;-74
2021/07/21 08:45:17;;;;;;;25.90;11.18;;;;;;;25.52;66.64;100623.02;1734167;83;21323;-73
2021/07/21 08:47:52;;;;;;;15.55;9.55;;;;;;;25.53;66.09;100631.20;1705373;81;21379;-73
2021/07/21 08:50:30;;;;;;;27.27;10.10;;;;;;;25.55;66.33;100619.47;1733171;83;21363;-73
2021/07/21 08:53:05;;;;;;;20.55;9.68;;;;;;;25.57;66.07;100617.92;1733571;83;21272;-76
2021/07/21 08:55:38;;;;;;;22.35;9.65;;;;;;;25.66;65.52;100620.61;1733152;83;21197;-73
2021/07/21 08:58:13;;;;;;;27.80;9.85;;;;;;;25.78;65.63;100624.81;1732793;83;21200;-74
2021/07/21 09:01:08;;;;;;;22.05;9.55;;;;;;;25.88;64.27;100617.98;1734082;83;21177;-72
2021/07/21 09:03:49;;;;;;;18.02;9.63;;;;;;;25.94;64.62;100622.26;1725045;83;21336;-77
2021/07/21 09:06:38;;;;;;;15.85;8.95;;;;;;;25.95;64.36;100622.48;1735649;80;21288;-77
2021/07/21 09:09:16;;;;;;;17.00;8.90;;;;;;;25.94;64.76;100615.72;1732742;83;21197;-73
2021/07/21 09:11:58;;;;;;;12.68;8.43;;;;;;;25.93;64.32;100622.61;1729173;83;21308;-73
2021/07/21 09:14:33;;;;;;;13.28;9.05;;;;;;;25.88;64.51;100624.27;1705574;83;21889;-73
2021/07/21 09:17:16;;;;;;;12.95;8.55;;;;;;;25.84;64.89;100620.52;1733027;82;21691;-73
2021/07/21 09:19:51;;;;;;;23.60;9.17;;;;;;;25.83;65.04;100618.83;1733012;83;21446;-79
2021/07/21 09:22:39;;;;;;;13.35;8.80;;;;;;;25.84;65.27;100621.33;1732100;83;21217;-75
2021/07/21 09:25:22;;;;;;;15.83;8.90;;;;;;;25.93;65.08;100626.88;1732030;83;21181;-80
2021/07/21 09:27:57;;;;;;;20.55;9.40;;;;;;;25.96;64.79;100624.13;1732015;83;21327;-79
2021/07/21 09:30:33;;;;;;;18.75;9.10;;;;;;;25.93;64.68;100619.77;1731995;83;21193;-79
2021/07/21 09:33:13;;;;;;;17.15;10.00;;;;;;;25.95;64.99;100618.80;1732073;83;21805;-76
2021/07/21 09:35:57;;;;;;;20.62;9.70;;;;;;;26.00;64.75;100617.11;1741691;76;21214;-72
2021/07/21 09:38:33;;;;;;;17.20;8.28;;;;;;;26.06;64.14;100619.92;1744379;82;21186;-74
2021/07/21 09:41:07;;;;;;;15.35;7.55;;;;;;;26.10;64.37;100615.16;1727992;83;21194;-73
2021/07/21 09:43:39;;;;;;;19.35;9.43;;;;;;;26.14;64.24;100612.63;1730926;83;21849;-73
2021/07/21 09:46:14;;;;;;;16.40;8.23;;;;;;;26.19;64.01;100610.09;1731116;83;21202;-73
2021/07/21 09:48:50;;;;;;;16.57;6.97;;;;;;;26.24;63.37;100617.79;1756171;82;21695;-85
2021/07/21 09:51:38;;;;;;;22.32;7.10;;;;;;;26.26;63.43;100611.70;1755260;80;21708;-74
2021/07/21 09:54:19;;;;;;;16.15;7.15;;;;;;;26.28;63.47;100608.72;1755335;82;21330;-73
2021/07/21 09:56:56;;;;;;;9.18;6.78;;;;;;;26.33;63.32;100607.64;1784530;80;21319;-71
2021/07/21 09:59:33;;;;;;;10.35;6.33;;;;;;;26.36;63.34;100612.59;1755712;82;21325;-72
2021/07/21 10:02:25;;;;;;;18.98;6.85;;;;;;;26.41;63.38;100613.16;1784122;80;21202;-71
2021/07/21 10:04:55;;;;;;;20.15;6.35;;;;;;;26.42;62.55;100619.08;1784858;80;21336;-72
2021/07/21 10:10:23;;;;;;;10.30;6.67;;;;;;;26.39;62.86;100611.87;1784554;80;21395;-72
2021/07/21 10:13:10;;;;;;;18.20;5.90;;;;;;;26.38;62.84;100613.87;1757713;82;21324;-72
2021/07/21 10:15:48;;;;;;;14.33;7.47;;;;;;;26.41;63.02;100613.73;1756115;81;21695;-72
2021/07/21 10:18:24;;;;;;;18.35;7.03;;;;;;;26.46;62.62;100604.30;1785421;80;21360;-81
2021/07/21 10:21:02;;;;;;;14.20;6.80;;;;;;;26.53;62.86;100595.12;1736250;82;21198;-84
2021/07/21 10:23:36;;;;;;;20.70;6.75;;;;;;;26.64;62.43;100603.37;1785243;80;21241;-84
2021/07/21 10:26:09;;;;;;;17.50;5.90;;;;;;;26.71;61.43;100606.39;1756249;82;21309;-72
2021/07/21 10:28:48;;;;;;;11.53;5.78;;;;;;;26.72;62.07;100594.62;1785136;80;21308;-73
2021/07/21 10:31:29;;;;;;;10.78;5.83;;;;;;;26.73;61.10;100596.27;1755200;82;21332;-76
2021/07/21 10:34:05;;;;;;;8.10;5.67;;;;;;;26.76;61.62;100601.22;1784953;80;21313;-73
2021/07/21 10:39:47;;;;;;;12.58;5.75;;;;;;;26.91;61.20;100600.95;1755101;82;21253;-72
2021/07/21 10:42:20;;;;;;;22.75;5.28;;;;;;;26.93;61.22;100592.84;1718638;82;21858;-72
2021/07/21 10:45:20;;;;;;;30.02;5.67;;;;;;;26.97;60.98;100599.47;1755000;80;21380;-74
2021/07/21 10:48:04;;;;;;;9.90;5.75;;;;;;;27.01;61.05;100594.06;1725396;83;21190;-78
2021/07/21 10:53:45;;;;;;;15.72;7.05;;;;;;;27.06;60.43;100598.67;1724780;83;21356;-73
2021/07/21 10:59:24;;;;;;;9.80;6.97;;;;;;;27.17;60.71;100604.02;1695627;84;21339;-76
2021/07/21 11:02:04;;;;;;;16.45;7.37;;;;;;;27.18;59.50;100601.42;1669840;85;21299;-75
2021/07/21 11:04:50;;;;;;;11.78;7.05;;;;;;;27.13;59.67;100605.95;1680244;85;21384;-76
2021/07/21 11:07:50;;;;;;;9.78;6.75;;;;;;;27.07;59.77;100602.55;1670322;84;21386;-85
2021/07/21 11:10:38;;;;;;;11.80;7.12;;;;;;;27.03;59.86;100596.77;1677690;83;21215;-84
2021/07/21 11:13:35;;;;;;;18.10;7.47;;;;;;;27.03;59.42;100595.34;1693533;84;21423;-73
2021/07/21 11:16:50;;;;;;;8.85;6.95;;;;;;;27.06;59.88;100592.97;1694059;85;21366;-73
2021/07/21 11:19:46;;;;;;;21.10;7.33;;;;;;;27.06;59.58;100585.22;1692686;84;21365;-81
2021/07/21 11:22:26;;;;;;;9.03;6.28;;;;;;;27.12;60.15;100590.05;1702708;83;21876;-78
2021/07/21 11:25:18;;;;;;;14.40;7.80;;;;;;;27.20;59.68;100593.31;1702751;84;21192;-81
2021/07/21 11:28:04;;;;;;;13.03;6.30;;;;;;;27.21;59.27;100586.39;1702667;83;21354;-79
2021/07/21 11:30:50;;;;;;;14.83;6.55;;;;;;;27.19;59.57;100581.68;1764878;80;21316;-83
2021/07/21 11:33:54;;;;;;;11.40;6.85;;;;;;;27.26;59.30;100581.83;1758897;78;21879;-75
2021/07/21 11:36:48;;;;;;;12.95;6.28;;;;;;;27.23;59.13;100589.11;1720082;81;21339;-86
2021/07/21 11:39:56;;;;;;;16.85;7.00;;;;;;;27.26;59.44;100586.91;1721285;81;21305;-84
2021/07/21 11:42:41;;;;;;;14.10;7.33;;;;;;;27.29;59.13;100581.90;1721027;81;21335;-75
2021/07/21 11:45:19;;;;;;;35.28;8.13;;;;;;;27.30;59.25;100588.44;1721308;81;21335;-82
2021/07/21 11:50:35;;;;;;;15.43;7.25;;;;;;;27.38;58.66;100587.61;1721354;82;21338;-74
2021/07/21 11:53:10;;;;;;;12.98;5.95;;;;;;;27.43;58.60;100586.47;1720987;82;21879;-82
2021/07/21 11:55:43;;;;;;;8.63;5.25;;;;;;;27.40;58.24;100590.90;1721737;83;21205;-76
2021/07/21 11:58:17;;;;;;;14.70;7.03;;;;;;;27.35;58.28;100591.81;1721152;82;21798;-74
2021/07/21 12:00:52;;;;;;;50.40;8.15;;;;;;;27.29;58.40;100584.75;1718315;83;21228;-73
2021/07/21 12:03:26;;;;;;;29.87;7.83;;;;;;;27.28;58.72;100593.90;1721134;82;21861;-78
2021/07/21 12:05:58;;;;;;;;;;;;;;;27.31;58.29;100590.90;1723666;83;21363;-82
2021/07/21 12:08:34;;;;;;;31.55;7.35;;;;;;;27.28;58.23;100593.90;1719395;77;20232;-81
2021/07/21 12:11:14;;;;;;;15.70;6.30;;;;;;;27.20;58.04;100590.45;1747225;82;21207;-84
2021/07/21 12:13:48;;;;;;;13.28;7.25;;;;;;;27.10;58.44;100600.39;1747415;82;21338;-75
2021/07/21 12:16:20;;;;;;;;;;;;;;;27.01;58.64;100589.78;1750389;81;21318;-73
2021/07/21 12:19:04;;;;;;;13.70;7.25;;;;;;;26.96;58.52;100590.69;1747674;81;20254;-74
2021/07/21 12:21:41;;;;;;;11.68;6.37;;;;;;;26.91;58.53;100589.55;1747352;82;21248;-73
2021/07/21 12:24:14;;;;;;;31.15;7.65;;;;;;;26.84;58.97;100584.53;1747582;82;21876;-75